createdAt,value
2019-03-05T00:01:40.817Z,98.40
2019-03-05T00:04:09.884Z,98.30
2019-03-05T00:06:38.831Z,98.20
2019-03-05T00:09:12.808Z,98.20
2019-03-05T00:11:41.622Z,98.20
2019-03-05T00:14:11.736Z,98.30
2019-03-05T00:16:40.556Z,98.20
2019-03-05T00:19:09.437Z,98.10
2019-03-05T00:21:38.361Z,98.00
2019-03-05T00:24:43.056Z,98.10
2019-03-05T00:27:11.984Z,98.10
2019-03-05T00:30:07.345Z,98.10
2019-03-05T00:32:36.540Z,98.20
2019-03-05T00:35:26.784Z,98.20
2019-03-05T00:38:01.273Z,98.30
2019-03-05T00:40:54.198Z,98.30
2019-03-05T00:43:55.481Z,98.10
2019-03-05T00:47:05.648Z,98.10
2019-03-05T00:50:24.165Z,98.10
2019-03-05T00:53:10.216Z,97.90
2019-03-05T00:56:02.696Z,98.00
2019-03-05T00:59:10.650Z,98.20
2019-03-05T01:02:05.159Z,98.30
2019-03-05T01:05:03.188Z,98.30
2019-03-05T01:07:32.228Z,98.20
2019-03-05T01:10:01.237Z,98.20
2019-03-05T01:12:30.862Z,98.10
2019-03-05T01:14:59.909Z,98.20
2019-03-05T01:17:28.905Z,98.20
2019-03-05T01:19:57.975Z,98.30
2019-03-05T01:22:26.881Z,98.20
2019-03-05T01:24:55.884Z,98.10
2019-03-05T01:27:24.749Z,97.90
2019-03-05T01:29:53.870Z,98.00
2019-03-05T01:32:47.751Z,98.10
2019-03-05T01:35:33.730Z,98.10
2019-03-05T01:38:02.890Z,98.00
2019-03-05T01:40:43.776Z,97.90
2019-03-05T01:43:12.636Z,97.90
2019-03-05T01:45:41.621Z,97.60
2019-03-05T01:48:10.476Z,97.80
2019-03-05T01:50:39.377Z,97.60
2019-03-05T01:53:08.328Z,97.50
2019-03-05T01:55:37.237Z,97.70
2019-03-05T01:58:06.241Z,97.80
2019-03-05T02:00:35.422Z,97.70
2019-03-05T02:03:04.220Z,97.90
2019-03-05T02:05:33.228Z,97.80
2019-03-05T02:08:02.177Z,97.60
2019-03-05T02:10:31.176Z,97.80
2019-03-05T02:13:00.014Z,97.80
2019-03-05T02:15:28.902Z,97.70
2019-03-05T02:17:57.806Z,97.80
2019-03-05T02:20:26.762Z,97.70
2019-03-05T02:23:31.766Z,97.60
2019-03-05T02:26:14.390Z,97.90
2019-03-05T02:29:19.931Z,97.90
2019-03-05T02:32:28.362Z,98.10
2019-03-05T02:35:14.137Z,98.30
2019-03-05T02:38:05.464Z,98.30
2019-03-05T02:40:41.886Z,98.50
2019-03-05T02:43:23.505Z,98.60
2019-03-05T02:46:18.338Z,98.70
2019-03-05T02:49:21.720Z,98.80
2019-03-05T02:52:20.526Z,98.70
2019-03-05T02:55:06.274Z,98.50
2019-03-05T02:57:33.866Z,98.60
2019-03-05T03:00:02.839Z,98.50
2019-03-05T03:02:55.160Z,98.40
2019-03-05T03:05:43.756Z,98.30
2019-03-05T03:08:12.655Z,98.20
2019-03-05T03:10:41.710Z,98.20
2019-03-05T03:13:10.583Z,98.20
2019-03-05T03:15:39.530Z,98.20
2019-03-05T03:18:08.425Z,98.30
2019-03-05T03:20:37.402Z,98.30
2019-03-05T03:23:06.304Z,98.30
2019-03-05T03:25:35.270Z,98.40
2019-03-05T03:28:04.169Z,98.20
2019-03-05T03:30:33.177Z,98.20
2019-03-05T03:33:02.134Z,98.10
2019-03-05T03:35:31.013Z,97.90
2019-03-05T03:37:59.959Z,98.00
2019-03-05T03:40:29.023Z,98.10
2019-03-05T03:42:58.234Z,98.20
2019-03-05T03:45:27.436Z,98.00
2019-03-05T03:47:56.321Z,98.20
2019-03-05T03:50:25.347Z,98.20
2019-03-05T03:52:54.243Z,98.30
2019-03-05T03:55:23.163Z,98.20
2019-03-05T03:57:53.823Z,98.20
2019-03-05T04:00:23.679Z,98.10
2019-03-05T04:02:53.090Z,98.20
2019-03-05T04:05:22.065Z,98.20
2019-03-05T04:07:51.105Z,98.30
2019-03-05T04:10:20.109Z,98.20
2019-03-05T04:12:49.068Z,98.20
2019-03-05T04:15:19.606Z,98.20
2019-03-05T04:17:48.494Z,98.20
2019-03-05T04:20:42.980Z,98.20
2019-03-05T04:23:12.034Z,98.30
2019-03-05T04:25:40.905Z,98.30
2019-03-05T04:28:09.999Z,98.20
2019-03-05T04:30:39.037Z,98.10
2019-03-05T04:33:08.010Z,98.00
2019-03-05T04:35:36.973Z,98.20
2019-03-05T04:38:05.866Z,98.10
2019-03-05T04:40:34.675Z,98.10
2019-03-05T04:43:03.542Z,98.20
2019-03-05T04:45:59.031Z,98.30
2019-03-05T04:48:28.016Z,98.40
2019-03-05T04:51:02.574Z,98.60
2019-03-05T04:53:31.410Z,98.60
2019-03-05T04:56:00.318Z,98.50
2019-03-05T04:58:29.182Z,98.40
2019-03-05T05:00:58.199Z,98.20
2019-03-05T05:03:27.100Z,98.00
2019-03-05T05:05:55.962Z,97.80
2019-03-05T05:08:24.813Z,97.70
2019-03-05T05:10:53.700Z,98.00
2019-03-05T05:13:22.533Z,98.10
2019-03-05T05:15:51.496Z,98.30
2019-03-05T05:18:20.428Z,98.50
2019-03-05T05:20:49.226Z,98.60
2019-03-05T05:23:18.170Z,98.90
2019-03-05T05:25:47.097Z,98.90
2019-03-05T05:28:16.157Z,98.90
2019-03-05T05:30:45.157Z,98.80
2019-03-05T05:33:13.989Z,98.80
2019-03-05T05:35:42.876Z,98.60
2019-03-05T05:38:11.930Z,98.40
2019-03-05T05:40:42.796Z,98.40
2019-03-05T05:43:19.882Z,98.40
2019-03-05T05:45:50.187Z,98.40
2019-03-05T05:48:19.254Z,98.50
2019-03-05T05:50:48.292Z,98.80
2019-03-05T05:53:23.665Z,98.60
2019-03-05T05:55:52.686Z,98.50
2019-03-05T05:58:22.571Z,98.40
2019-03-05T06:00:53.830Z,98.20
2019-03-05T06:03:23.126Z,98.10
2019-03-05T06:05:52.040Z,98.40
2019-03-05T06:08:21.091Z,98.90
2019-03-05T06:10:52.707Z,99.30
2019-03-05T06:13:20.747Z,99.50
2019-03-05T06:15:49.569Z,99.70
2019-03-05T06:18:18.526Z,99.80
2019-03-05T06:20:47.625Z,99.90
2019-03-05T06:23:16.521Z,99.90
2019-03-05T06:25:45.502Z,99.90
2019-03-05T06:28:14.319Z,99.50
2019-03-05T06:30:43.590Z,99.50
2019-03-05T06:33:12.554Z,99.40
2019-03-05T06:35:41.425Z,99.00
2019-03-05T06:38:10.454Z,98.70
2019-03-05T06:40:42.156Z,98.60
2019-03-05T06:43:11.145Z,98.30
2019-03-05T06:45:42.424Z,98.10
2019-03-05T06:48:11.530Z,98.00
2019-03-05T06:50:40.401Z,97.90
2019-03-05T06:53:09.411Z,97.70
2019-03-05T06:55:38.418Z,97.50
2019-03-05T06:58:07.224Z,97.50
2019-03-05T07:00:37.754Z,97.40
2019-03-05T07:03:07.422Z,97.50
2019-03-05T07:06:12.094Z,97.40
2019-03-05T07:08:44.778Z,97.40
2019-03-05T07:11:22.011Z,97.40
2019-03-05T07:13:52.171Z,97.50
2019-03-05T07:16:26.005Z,97.50
2019-03-05T07:19:28.693Z,97.70
2019-03-05T07:22:24.553Z,97.60
2019-03-05T07:24:53.485Z,97.70
2019-03-05T07:27:43.117Z,97.40
2019-03-05T07:30:20.794Z,97.30
2019-03-05T07:32:49.718Z,97.10
2019-03-05T07:35:21.840Z,96.90
2019-03-05T07:37:50.760Z,96.80
2019-03-05T07:40:19.854Z,96.70
2019-03-05T07:42:52.685Z,96.30
2019-03-05T07:45:21.786Z,96.30
2019-03-05T07:47:50.640Z,96.30
2019-03-05T07:50:19.652Z,96.20
2019-03-05T07:52:48.640Z,96.10
2019-03-05T07:55:18.156Z,95.80
2019-03-05T07:57:47.018Z,95.60
2019-03-05T08:00:20.762Z,95.60
2019-03-05T08:02:49.649Z,95.70
2019-03-05T08:05:18.630Z,95.60
2019-03-05T08:07:47.709Z,95.30
2019-03-05T08:10:24.789Z,95.20
2019-03-05T08:13:37.219Z,95.10
2019-03-05T08:16:28.269Z,95.00
2019-03-05T08:18:57.254Z,95.10
2019-03-05T08:21:28.885Z,95.40
2019-03-05T08:23:57.686Z,95.40
2019-03-05T08:26:26.646Z,95.30
2019-03-05T08:28:55.467Z,95.50
2019-03-05T08:31:24.426Z,95.70
2019-03-05T08:33:53.262Z,95.60
2019-03-05T08:36:24.191Z,95.90
2019-03-05T08:38:55.657Z,96.10
2019-03-05T08:41:27.521Z,96.20
2019-03-05T08:43:56.584Z,96.00
2019-03-05T08:46:25.646Z,96.00
2019-03-05T08:48:54.464Z,96.00
2019-03-05T08:51:23.294Z,96.10
2019-03-05T08:53:52.156Z,96.10
2019-03-05T08:56:21.065Z,96.40
2019-03-05T08:58:50.029Z,96.80
2019-03-05T09:01:18.942Z,96.80
2019-03-05T09:03:48.526Z,97.30
2019-03-05T09:06:17.585Z,97.20
2019-03-05T09:08:46.559Z,97.60
2019-03-05T09:11:15.483Z,98.20
2019-03-05T09:13:44.306Z,98.00
2019-03-05T09:16:13.253Z,98.30
2019-03-05T09:18:45.041Z,98.10
2019-03-05T09:21:14.131Z,97.70
2019-03-05T09:23:42.961Z,97.30
2019-03-05T09:26:11.885Z,96.80
2019-03-05T09:28:40.725Z,96.30
2019-03-05T09:31:09.641Z,96.10
2019-03-05T09:33:38.815Z,96.30
2019-03-05T09:36:08.066Z,95.70
2019-03-05T09:38:36.901Z,95.60
2019-03-05T09:41:05.940Z,95.60
2019-03-05T09:43:34.870Z,95.50
2019-03-05T09:46:11.435Z,96.10
2019-03-05T09:48:40.492Z,96.80
2019-03-05T09:51:10.182Z,97.30
2019-03-05T09:53:39.205Z,97.70
2019-03-05T09:56:08.276Z,97.30
2019-03-05T09:58:37.224Z,97.10
2019-03-05T10:01:06.420Z,96.80
2019-03-05T10:03:35.335Z,96.50
2019-03-05T10:06:04.628Z,95.80
2019-03-05T10:08:33.593Z,95.20
2019-03-05T10:11:02.564Z,95.30
2019-03-05T10:13:31.529Z,95.00
2019-03-05T10:16:00.537Z,94.70
2019-03-05T10:18:29.396Z,95.20
2019-03-05T10:20:58.457Z,95.70
2019-03-05T10:23:27.333Z,95.20
2019-03-05T10:25:56.837Z,95.10
2019-03-05T10:28:25.804Z,94.70
2019-03-05T10:30:54.790Z,94.40
2019-03-05T10:33:23.702Z,94.60
2019-03-05T10:35:52.608Z,94.10
2019-03-05T10:38:27.849Z,94.20
2019-03-05T10:40:57.775Z,93.80
2019-03-05T10:43:26.806Z,93.70
2019-03-05T10:45:55.989Z,94.20
2019-03-05T10:48:30.266Z,94.30
2019-03-05T10:51:06.799Z,94.40
2019-03-05T10:53:35.900Z,95.10
2019-03-05T10:56:06.064Z,95.80
2019-03-05T10:58:36.896Z,95.60
2019-03-05T11:01:09.707Z,95.70
2019-03-05T11:03:38.880Z,95.50
2019-03-05T11:06:08.502Z,95.40
2019-03-05T11:08:37.504Z,95.40
2019-03-05T11:11:13.478Z,95.80
2019-03-05T11:13:37.429Z,96.10
2019-03-05T11:16:06.487Z,96.40
2019-03-05T11:18:36.557Z,96.40
2019-03-05T11:21:06.202Z,96.30
2019-03-05T11:23:35.138Z,95.80
2019-03-05T11:26:04.357Z,96.20
2019-03-05T11:28:33.280Z,96.40
2019-03-05T11:31:02.482Z,96.40
2019-03-05T11:33:31.420Z,96.70
2019-03-05T11:36:00.461Z,97.00
2019-03-05T11:38:29.419Z,96.90
2019-03-05T11:40:58.567Z,96.70
2019-03-05T11:43:27.592Z,96.80
2019-03-05T11:45:56.641Z,96.80
2019-03-05T11:48:25.596Z,96.90
2019-03-05T11:50:54.623Z,96.80
2019-03-05T11:53:23.586Z,96.30
2019-03-05T11:55:52.559Z,96.30
2019-03-05T11:58:21.507Z,96.70
2019-03-05T12:01:01.119Z,97.10
2019-03-05T12:03:30.146Z,97.20
2019-03-05T12:05:59.027Z,97.10
2019-03-05T12:08:28.068Z,97.20
2019-03-05T12:11:22.621Z,96.90
2019-03-05T12:13:51.573Z,97.10
2019-03-05T12:16:23.718Z,96.60
2019-03-05T12:18:52.651Z,96.60
2019-03-05T12:21:21.595Z,96.50
2019-03-05T12:23:57.590Z,96.60
2019-03-05T12:26:23.814Z,96.30
2019-03-05T12:28:52.778Z,96.20
2019-03-05T12:31:21.650Z,96.30
2019-03-05T12:33:50.486Z,96.00
2019-03-05T12:36:19.585Z,96.00
2019-03-05T12:38:48.513Z,95.40
2019-03-05T12:41:17.518Z,95.30
2019-03-05T12:43:46.468Z,95.30
2019-03-05T12:46:15.410Z,95.50
2019-03-05T12:48:44.407Z,95.50
2019-03-05T12:51:13.418Z,95.20
2019-03-05T12:53:42.301Z,95.00
2019-03-05T12:56:11.282Z,94.60
2019-03-05T12:58:40.149Z,94.10
2019-03-05T13:01:09.694Z,94.10
2019-03-05T13:03:38.607Z,94.40
2019-03-05T13:06:10.286Z,95.20
2019-03-05T13:08:39.137Z,94.50
2019-03-05T13:11:09.352Z,94.70
2019-03-05T13:13:38.649Z,94.70
2019-03-05T13:16:07.559Z,94.50
2019-03-05T13:18:36.389Z,94.50
2019-03-05T13:21:07.650Z,94.60
2019-03-05T13:23:38.377Z,94.90
2019-03-05T13:26:08.849Z,95.10
2019-03-05T13:28:40.648Z,96.80
2019-03-05T13:31:08.799Z,97.60
2019-03-05T13:33:41.843Z,97.40
2019-03-05T13:36:12.510Z,97.20
2019-03-05T13:38:41.681Z,96.30
2019-03-05T13:41:12.193Z,95.70
2019-03-05T13:43:42.003Z,95.40
2019-03-05T13:46:11.103Z,94.80
2019-03-05T13:48:59.555Z,94.60
2019-03-05T13:51:59.633Z,94.60
2019-03-05T13:55:12.793Z,94.40
2019-03-05T13:58:20.289Z,94.40
2019-03-05T14:00:50.880Z,95.30
2019-03-05T14:03:27.817Z,96.90
2019-03-05T14:06:17.938Z,97.00
2019-03-05T14:09:20.897Z,96.00
2019-03-05T14:11:51.291Z,96.60
2019-03-05T14:14:21.746Z,96.20
2019-03-05T14:16:55.549Z,96.10
2019-03-05T14:19:24.519Z,96.00
2019-03-05T14:21:53.669Z,96.30
2019-03-05T14:24:22.703Z,96.00
2019-03-05T14:26:51.627Z,96.00
2019-03-05T14:29:20.658Z,95.60
2019-03-05T14:31:49.737Z,95.00
2019-03-05T14:34:18.651Z,95.10
2019-03-05T14:36:49.107Z,95.50
2019-03-05T14:39:27.611Z,95.50
2019-03-05T14:41:56.728Z,94.90
2019-03-05T14:44:25.741Z,94.20
2019-03-05T14:46:56.328Z,94.60
2019-03-05T14:49:25.414Z,94.10
2019-03-05T14:51:54.361Z,93.60
2019-03-05T14:54:26.462Z,93.00
2019-03-05T14:56:55.544Z,92.90
2019-03-05T14:59:24.565Z,93.00
2019-03-05T15:01:54.169Z,93.10
2019-03-05T15:05:19.567Z,92.90
2019-03-05T15:07:45.815Z,93.00
2019-03-05T15:10:15.234Z,93.30
2019-03-05T15:12:44.133Z,93.20
2019-03-05T15:15:16.603Z,93.30
2019-03-05T15:17:45.738Z,93.20
2019-03-05T15:20:14.718Z,93.20
2019-03-05T15:22:43.809Z,93.10
2019-03-05T15:25:13.376Z,92.80
2019-03-05T15:27:42.458Z,92.50
2019-03-05T15:30:14.077Z,92.30
2019-03-05T15:32:43.302Z,92.30
2019-03-05T15:35:12.543Z,92.00
2019-03-05T15:37:41.743Z,91.70
2019-03-05T15:40:12.212Z,91.70
2019-03-05T15:42:41.267Z,91.80
2019-03-05T15:45:12.646Z,91.80
2019-03-05T15:47:44.470Z,91.60
2019-03-05T15:50:15.575Z,91.50
2019-03-05T15:52:44.684Z,91.50
2019-03-05T15:55:13.872Z,91.50
2019-03-05T15:57:43.002Z,91.90
2019-03-05T16:00:17.502Z,92.10
2019-03-05T16:02:46.601Z,92.20
2019-03-05T16:05:16.730Z,92.60
2019-03-05T16:08:09.261Z,92.60
2019-03-05T16:10:38.111Z,92.60
2019-03-05T16:13:07.054Z,92.90
2019-03-05T16:15:36.126Z,93.10
2019-03-05T16:18:06.672Z,93.10
2019-03-05T16:20:35.832Z,93.20
2019-03-05T16:23:04.932Z,93.00
2019-03-05T16:25:34.038Z,92.90
2019-03-05T16:28:19.945Z,92.90
2019-03-05T16:31:13.929Z,93.30
2019-03-05T16:34:01.753Z,93.60
2019-03-05T16:36:52.546Z,94.00
2019-03-05T16:39:33.254Z,94.30
2019-03-05T16:42:20.194Z,94.50
2019-03-05T16:45:06.731Z,94.40
2019-03-05T16:47:49.146Z,94.00
2019-03-05T16:50:49.397Z,93.70
2019-03-05T16:53:27.209Z,93.70
2019-03-05T16:56:23.997Z,94.00
2019-03-05T16:59:07.480Z,93.80
2019-03-05T17:01:45.319Z,93.70
2019-03-05T17:04:36.316Z,93.80
2019-03-05T17:07:30.623Z,93.70
2019-03-05T17:10:18.665Z,94.00
2019-03-05T17:12:47.647Z,94.20
2019-03-05T17:15:16.758Z,94.30
2019-03-05T17:17:45.765Z,94.50
2019-03-05T17:20:14.798Z,94.50
2019-03-05T17:22:43.680Z,94.30
2019-03-05T17:25:13.880Z,94.50
2019-03-05T17:27:42.902Z,94.60
2019-03-05T17:30:14.433Z,94.70
2019-03-05T17:32:43.550Z,94.90
2019-03-05T17:35:13.323Z,95.20
2019-03-05T17:37:42.314Z,95.40
2019-03-05T17:40:11.647Z,95.20
2019-03-05T17:42:40.716Z,95.30
2019-03-05T17:45:12.881Z,95.20
2019-03-05T17:47:41.808Z,95.30
2019-03-05T17:50:11.345Z,95.20
2019-03-05T17:52:47.994Z,95.30
2019-03-05T17:55:24.106Z,95.40
2019-03-05T17:57:52.713Z,95.60
2019-03-05T18:00:37.107Z,95.70
2019-03-05T18:03:06.225Z,95.50
2019-03-05T18:05:35.184Z,95.50
2019-03-05T18:08:04.341Z,95.40
2019-03-05T18:10:33.645Z,95.50
2019-03-05T18:13:02.594Z,95.60
2019-03-05T18:15:34.869Z,95.80
2019-03-05T18:18:03.862Z,95.80
2019-03-05T18:20:33.218Z,95.70
2019-03-05T18:23:02.286Z,95.70
2019-03-05T18:25:31.488Z,95.30
2019-03-05T18:28:00.510Z,95.40
2019-03-05T18:30:30.408Z,95.60
2019-03-05T18:32:59.560Z,95.60
2019-03-05T18:35:28.526Z,95.60
2019-03-05T18:37:57.416Z,95.60
2019-03-05T18:40:26.463Z,95.30
2019-03-05T18:42:55.623Z,95.50
2019-03-05T18:45:25.447Z,95.40
2019-03-05T18:47:54.375Z,95.50
2019-03-05T18:50:23.646Z,95.40
2019-03-05T18:52:52.967Z,95.60
2019-03-05T18:55:22.412Z,95.50
2019-03-05T18:57:51.370Z,95.70
2019-03-05T19:00:22.158Z,95.80
2019-03-05T19:02:52.447Z,96.00
2019-03-05T19:05:21.545Z,96.00
2019-03-05T19:07:50.454Z,96.10
2019-03-05T19:10:20.193Z,96.30
2019-03-05T19:12:49.393Z,96.40
2019-03-05T19:15:19.784Z,96.50
2019-03-05T19:17:48.724Z,96.60
2019-03-05T19:20:19.918Z,96.40
2019-03-05T19:22:48.949Z,96.40
2019-03-05T19:25:23.089Z,96.50
2019-03-05T19:27:52.178Z,96.80
2019-03-05T19:30:23.302Z,97.00
2019-03-05T19:32:52.455Z,96.90
2019-03-05T19:35:21.287Z,97.10
2019-03-05T19:37:50.249Z,97.10
2019-03-05T19:40:21.869Z,97.20
2019-03-05T19:42:51.058Z,97.20
2019-03-05T19:45:20.018Z,97.40
2019-03-05T19:47:48.960Z,97.80
2019-03-05T19:50:18.518Z,97.80
2019-03-05T19:52:47.724Z,98.00
2019-03-05T19:55:19.669Z,98.20
2019-03-05T19:57:48.931Z,98.30
2019-03-05T20:00:23.440Z,98.50
2019-03-05T20:02:52.348Z,98.50
2019-03-05T20:05:21.597Z,98.70
2019-03-05T20:07:57.966Z,98.70
2019-03-05T20:10:28.488Z,98.80
2019-03-05T20:12:59.682Z,98.80
2019-03-05T20:15:28.931Z,98.80
2019-03-05T20:17:59.109Z,98.90
2019-03-05T20:20:28.194Z,99.10
2019-03-05T20:22:58.410Z,99.20
2019-03-05T20:25:27.530Z,99.20
2019-03-05T20:27:56.644Z,99.30
2019-03-05T20:30:27.245Z,99.50
2019-03-05T20:32:56.697Z,99.40
2019-03-05T20:35:25.736Z,99.60
2019-03-05T20:37:56.817Z,99.80
2019-03-05T20:40:26.033Z,99.90
2019-03-05T20:42:55.029Z,99.90
2019-03-05T20:45:26.424Z,99.90
2019-03-05T20:47:57.402Z,99.90
2019-03-05T20:50:29.005Z,99.90
2019-03-05T20:52:58.249Z,99.90
2019-03-05T20:55:27.541Z,99.90
2019-03-05T20:57:56.430Z,99.90
2019-03-05T21:00:27.634Z,99.90
2019-03-05T21:02:58.553Z,99.90
2019-03-05T21:05:32.528Z,99.90
2019-03-05T21:08:01.658Z,99.90
2019-03-05T21:10:30.756Z,99.90
2019-03-05T21:12:59.755Z,99.90
2019-03-05T21:15:29.140Z,99.90
2019-03-05T21:17:58.085Z,99.90
2019-03-05T21:20:27.000Z,99.90
2019-03-05T21:22:56.072Z,99.90
2019-03-05T21:25:25.068Z,99.90
2019-03-05T21:27:54.016Z,99.90
2019-03-05T21:30:23.001Z,99.90
2019-03-05T21:32:51.998Z,99.90
2019-03-05T21:35:21.209Z,99.90
2019-03-05T21:37:50.327Z,99.90
2019-03-05T21:40:20.893Z,99.90
2019-03-05T21:42:49.864Z,99.90
2019-03-05T21:45:27.738Z,99.90
2019-03-05T21:47:56.802Z,99.90
2019-03-05T21:50:25.862Z,99.90
2019-03-05T21:52:54.815Z,99.90
2019-03-05T21:55:23.812Z,99.90
2019-03-05T21:57:52.738Z,99.90
2019-03-05T22:00:23.942Z,99.90
2019-03-05T22:02:52.940Z,99.90
2019-03-05T22:05:21.875Z,99.90
2019-03-05T22:07:50.900Z,99.90
2019-03-05T22:10:20.131Z,99.90
2019-03-05T22:12:49.344Z,99.90
2019-03-05T22:15:19.115Z,99.90
2019-03-05T22:17:48.156Z,99.90
2019-03-05T22:20:17.713Z,99.90
2019-03-05T22:22:46.768Z,99.90
2019-03-05T22:25:17.414Z,99.90
2019-03-05T22:27:46.436Z,99.90
2019-03-05T22:30:17.657Z,99.90
2019-03-05T22:32:48.147Z,99.90
2019-03-05T22:35:18.100Z,99.90
2019-03-05T22:37:47.061Z,99.90
2019-03-05T22:40:16.060Z,99.90
2019-03-05T22:42:45.132Z,99.90
2019-03-05T22:45:16.453Z,99.90
2019-03-05T22:47:45.496Z,99.90
2019-03-05T22:50:15.071Z,99.90
2019-03-05T22:52:45.829Z,99.90
2019-03-05T22:55:14.841Z,99.90
2019-03-05T22:57:43.797Z,99.90
2019-03-05T23:00:58.313Z,99.90
2019-03-05T23:03:27.807Z,99.90
2019-03-05T23:05:56.750Z,99.90
2019-03-05T23:08:25.683Z,99.90
2019-03-05T23:10:54.613Z,99.90
2019-03-05T23:13:23.556Z,99.90
2019-03-05T23:15:52.633Z,99.90
2019-03-05T23:18:23.543Z,99.90
2019-03-05T23:20:52.601Z,99.90
2019-03-05T23:23:21.701Z,99.90
2019-03-05T23:25:50.640Z,99.90
2019-03-05T23:28:19.867Z,99.90
2019-03-05T23:30:49.313Z,99.90
2019-03-05T23:33:21.334Z,99.90
2019-03-05T23:35:50.353Z,99.90
2019-03-05T23:38:19.199Z,99.90
2019-03-05T23:40:48.527Z,99.90
2019-03-05T23:43:17.605Z,99.90
2019-03-05T23:45:47.646Z,99.90
2019-03-05T23:48:16.604Z,99.90
2019-03-05T23:50:45.720Z,99.90
2019-03-05T23:53:14.796Z,99.90
2019-03-05T23:55:43.602Z,99.90
2019-03-05T23:58:12.575Z,99.90
